Riverton, Kansas
Current Conditions -  °F | °C
As of 5:53 PM on Friday 21 Nov 2014 (Local Time) from KJLN Reporting Station
Overcast Overcast  
Wind Chill: 52°   Ceiling: 1500
Heat Index: 52°   Visibility: 10mi
Dew Point: 44°   Wind: 9mph
Humidity: 74%   Direction: 130°SE
Pressure: 30.11"   Gusts: NA
Location:  37.08°N, 94.7°W
Report Text: KJLN 212353Z 13008KT 10SM OVC015 11/07 A3011 RMK AO2 SLP196 60001 T01110067 10150 20100 53003
Loading
Personal Weather Stations






























Interactive Weather Map New forecast layout! Learn more

10-Day Weather Forecast

Advertisements
Track Severe Weather on mobile